Time;durP1;ratioP1;P1;durP2;ratioP2;P2;SDS_P1;SDS_P2;PMS_P1;PMS_P2;Temp;Humidity;BMP_temperature;BMP_pressure;BME280_temperature;BME280_humidity;BME280_pressure;Samples;Min_cycle;Max_cycle;Signal;HPM_P1;HPM_P2
2023/05/25 00:01:47;;;;;;;22.92;8.73;;;11.40;99.90;;;;;;5051827;28;20035;-60
2023/05/25 00:04:15;;;;;;;19.50;7.90;;;11.40;99.90;;;;;;4999004;28;20173;-59
2023/05/25 00:06:46;;;;;;;24.98;8.45;;;11.40;99.90;;;;;;5034371;28;20064;-60
2023/05/25 00:09:12;;;;;;;18.35;7.85;;;11.40;99.90;;;;;;5034375;28;20099;-60
2023/05/25 00:11:38;;;;;;;15.40;7.75;;;11.40;99.90;;;;;;5034172;28;20072;-61
2023/05/25 00:14:04;;;;;;;16.42;8.50;;;11.40;99.90;;;;;;5052077;28;20048;-61
2023/05/25 00:16:30;;;;;;;15.88;7.20;;;11.30;99.90;;;;;;5034140;28;20395;-60
2023/05/25 00:18:56;;;;;;;17.63;8.32;;;11.30;99.90;;;;;;5034018;28;20044;-60
2023/05/25 00:21:23;;;;;;;14.90;7.32;;;11.30;99.90;;;;;;5048439;23;20121;-57
2023/05/25 00:23:49;;;;;;;15.30;6.68;;;11.30;99.90;;;;;;5070820;28;20044;-58
2023/05/25 00:26:17;;;;;;;18.48;7.90;;;11.20;99.90;;;;;;5038514;28;20059;-58
2023/05/25 00:28:43;;;;;;;15.15;7.20;;;11.20;99.90;;;;;;5053818;28;20036;-58
2023/05/25 00:31:09;;;;;;;14.35;7.47;;;11.20;99.90;;;;;;5048006;28;20509;-58
2023/05/25 00:33:34;;;;;;;15.10;8.13;;;11.20;99.90;;;;;;5050955;28;20037;-58
2023/05/25 00:36:02;;;;;;;17.40;7.07;;;11.20;99.90;;;;;;5068294;28;20479;-58
2023/05/25 00:38:27;;;;;;;16.90;8.00;;;11.20;99.90;;;;;;5068096;28;20044;-57
2023/05/25 00:40:56;;;;;;;15.30;7.07;;;11.20;99.90;;;;;;5065275;28;20454;-58
2023/05/25 00:43:22;;;;;;;16.25;7.97;;;11.20;99.90;;;;;;5043748;28;20407;-59
2023/05/25 00:45:49;;;;;;;22.80;8.73;;;11.20;99.90;;;;;;5025647;28;20036;-58
2023/05/25 00:48:15;;;;;;;20.85;10.27;;;11.10;99.90;;;;;;5047190;28;20110;-58
2023/05/25 00:50:43;;;;;;;15.98;8.13;;;11.10;99.90;;;;;;5064861;28;20052;-56
2023/05/25 00:53:10;;;;;;;25.20;8.80;;;11.10;99.90;;;;;;5065689;28;20094;-61
2023/05/25 00:55:43;;;;;;;17.15;8.43;;;11.10;99.90;;;;;;5050343;28;20044;-59
2023/05/25 00:58:10;;;;;;;23.02;9.45;;;11.10;99.90;;;;;;5070809;28;20043;-58
2023/05/25 01:00:40;;;;;;;17.67;7.40;;;11.10;99.90;;;;;;5067803;28;20111;-60
2023/05/25 01:03:16;;;;;;;18.92;8.23;;;11.10;99.90;;;;;;5068969;28;20491;-58
2023/05/25 01:05:44;;;;;;;21.77;9.70;;;11.10;99.90;;;;;;5066941;28;20040;-59
2023/05/25 01:08:12;;;;;;;22.10;8.20;;;11.10;99.90;;;;;;5068973;28;20131;-59
2023/05/25 01:10:39;;;;;;;17.60;7.72;;;11.00;99.90;;;;;;5048783;28;20047;-59
2023/05/25 01:13:07;;;;;;;18.63;8.63;;;11.00;99.90;;;;;;5050548;28;20329;-58
2023/05/25 01:15:33;;;;;;;15.00;8.25;;;11.00;99.90;;;;;;5046798;28;20198;-59
2023/05/25 01:17:59;;;;;;;13.52;7.55;;;10.90;99.90;;;;;;5051309;28;20040;-59
2023/05/25 01:20:26;;;;;;;15.65;7.07;;;11.00;99.90;;;;;;5050164;28;20113;-59
2023/05/25 01:22:54;;;;;;;17.25;7.93;;;10.90;99.90;;;;;;5026581;28;20055;-59
2023/05/25 01:25:31;;;;;;;18.40;8.27;;;10.90;99.90;;;;;;5043832;28;20077;-59
2023/05/25 01:28:02;;;;;;;18.38;8.35;;;10.90;99.90;;;;;;5067366;28;20086;-59
2023/05/25 01:30:31;;;;;;;19.48;7.78;;;10.90;99.90;;;;;;5048426;28;20044;-58
2023/05/25 01:32:58;;;;;;;18.52;7.95;;;10.90;99.90;;;;;;5064747;28;20040;-59
2023/05/25 01:35:25;;;;;;;18.95;8.98;;;10.80;99.90;;;;;;5066137;28;20091;-59
2023/05/25 01:37:51;;;;;;;15.98;7.57;;;10.80;99.90;;;;;;5066840;28;20037;-58
2023/05/25 01:40:17;;;;;;;14.80;7.93;;;10.80;99.90;;;;;;5054594;28;20063;-59
2023/05/25 01:42:43;;;;;;;27.48;9.48;;;10.80;99.90;;;;;;5045518;28;20141;-59
2023/05/25 01:45:10;;;;;;;18.08;8.73;;;10.80;99.90;;;;;;5068013;28;20515;-59
2023/05/25 01:48:08;;;;;;;18.45;9.02;;;10.80;99.90;;;;;;5067646;28;20391;-58
2023/05/25 01:51:06;;;;;;;19.92;8.40;;;10.80;99.90;;;;;;5001059;28;20045;-59
2023/05/25 01:53:38;;;;;;;20.52;9.85;;;10.70;99.90;;;;;;5062495;28;20113;-59
2023/05/25 01:56:10;;;;;;;21.23;9.18;;;10.70;99.90;;;;;;5058932;28;20052;-60
2023/05/25 01:58:41;;;;;;;13.18;8.93;;;10.70;99.90;;;;;;5048828;28;20076;-60
2023/05/25 02:01:13;;;;;;;19.70;9.43;;;10.70;99.90;;;;;;5064403;28;20298;-59
2023/05/25 02:03:43;;;;;;;19.55;9.30;;;10.70;99.90;;;;;;5064841;28;20040;-59
2023/05/25 02:06:09;;;;;;;23.05;10.05;;;10.70;99.90;;;;;;5068264;28;20538;-60
2023/05/25 02:08:35;;;;;;;19.92;10.05;;;10.70;99.90;;;;;;5049750;28;20132;-60
2023/05/25 02:11:02;;;;;;;17.13;8.73;;;10.70;99.90;;;;;;5066954;28;20086;-59
2023/05/25 02:13:30;;;;;;;21.58;10.27;;;10.70;99.90;;;;;;5064192;28;20093;-58
2023/05/25 02:15:56;;;;;;;17.52;9.32;;;10.70;99.90;;;;;;5062144;28;20048;-58
2023/05/25 02:18:22;;;;;;;19.77;9.63;;;10.70;99.90;;;;;;5032496;28;20043;-60
2023/05/25 02:20:48;;;;;;;20.85;8.80;;;10.70;99.90;;;;;;5044930;28;20076;-59
2023/05/25 02:23:14;;;;;;;16.33;8.75;;;10.70;99.90;;;;;;5067586;28;20056;-59
2023/05/25 02:25:41;;;;;;;15.65;8.60;;;10.70;99.90;;;;;;5065914;28;20521;-59
2023/05/25 02:28:06;;;;;;;22.60;8.98;;;10.70;99.90;;;;;;5060457;28;20479;-60
2023/05/25 02:30:32;;;;;;;16.90;7.75;;;10.70;99.90;;;;;;5041335;28;20051;-60
2023/05/25 02:33:01;;;;;;;16.00;8.07;;;10.70;99.90;;;;;;5058825;28;20499;-59
2023/05/25 02:35:26;;;;;;;19.25;8.07;;;10.70;99.90;;;;;;5058822;28;20039;-58
2023/05/25 02:37:52;;;;;;;15.48;9.35;;;10.70;99.90;;;;;;5061504;28;20036;-59
2023/05/25 02:40:18;;;;;;;15.05;8.35;;;10.70;99.90;;;;;;5046911;28;20083;-59
2023/05/25 02:42:43;;;;;;;19.55;10.38;;;10.70;99.90;;;;;;5064243;28;20139;-59
2023/05/25 02:45:10;;;;;;;18.13;10.45;;;10.60;99.90;;;;;;5038041;28;20056;-60
2023/05/25 02:47:36;;;;;;;16.67;10.27;;;10.60;99.90;;;;;;5062645;28;20044;-59
2023/05/25 02:50:02;;;;;;;23.27;10.95;;;10.60;99.90;;;;;;5065113;28;20044;-58
2023/05/25 02:52:30;;;;;;;17.70;9.68;;;10.60;99.90;;;;;;5065906;28;20135;-57
2023/05/25 02:54:58;;;;;;;30.10;12.88;;;10.60;99.90;;;;;;5048493;28;20447;-58
2023/05/25 02:57:24;;;;;;;27.33;12.77;;;10.50;99.90;;;;;;5065623;28;20072;-60
2023/05/25 02:59:51;;;;;;;26.48;11.57;;;10.50;99.90;;;;;;5065050;28;20040;-59
2023/05/25 03:02:17;;;;;;;22.45;11.50;;;10.50;99.90;;;;;;5033117;28;20241;-59
2023/05/25 03:04:48;;;;;;;20.75;10.27;;;10.50;99.90;;;;;;5064590;28;20597;-59
2023/05/25 03:07:17;;;;;;;18.95;11.65;;;10.50;99.90;;;;;;5067451;28;20041;-58
2023/05/25 03:09:42;;;;;;;17.17;9.13;;;10.50;99.90;;;;;;5050314;28;20049;-58
2023/05/25 03:12:08;;;;;;;18.17;9.10;;;10.50;99.90;;;;;;5069441;28;20036;-59
2023/05/25 03:14:34;;;;;;;18.38;8.88;;;10.50;99.90;;;;;;5061679;28;20698;-59
2023/05/25 03:17:03;;;;;;;18.33;9.10;;;10.50;99.90;;;;;;5046242;28;20052;-60
2023/05/25 03:19:28;;;;;;;32.08;12.70;;;10.60;99.90;;;;;;5035758;28;20048;-60
2023/05/25 03:21:54;;;;;;;17.88;9.93;;;10.50;99.90;;;;;;5069727;28;20043;-60
2023/05/25 03:24:20;;;;;;;21.20;10.27;;;10.50;99.90;;;;;;5071397;28;20044;-60
2023/05/25 03:26:46;;;;;;;16.05;9.02;;;10.50;99.90;;;;;;5067712;28;20122;-60
2023/05/25 03:29:11;;;;;;;23.13;10.93;;;10.60;99.90;;;;;;5053162;28;20530;-60
2023/05/25 03:31:37;;;;;;;23.25;12.32;;;10.50;99.90;;;;;;5070516;28;20056;-60
2023/05/25 03:34:03;;;;;;;16.50;10.13;;;10.50;99.90;;;;;;5065135;28;20043;-60
2023/05/25 03:36:32;;;;;;;18.77;9.52;;;10.50;99.90;;;;;;5046808;28;20652;-60
2023/05/25 03:38:58;;;;;;;22.92;12.50;;;10.60;99.90;;;;;;5065417;28;20047;-60
2023/05/25 03:41:24;;;;;;;21.55;11.68;;;10.60;99.90;;;;;;5052407;28;20552;-60
2023/05/25 03:43:50;;;;;;;22.80;10.40;;;10.60;99.90;;;;;;5069629;28;20029;-60
2023/05/25 03:46:15;;;;;;;22.25;12.48;;;10.60;99.90;;;;;;5070147;28;20048;-59
2023/05/25 03:48:41;;;;;;;16.17;9.10;;;10.60;99.90;;;;;;5040142;28;20837;-59
2023/05/25 03:51:07;;;;;;;21.70;11.02;;;10.60;99.90;;;;;;5065696;28;20043;-60
2023/05/25 03:53:35;;;;;;;15.60;8.55;;;10.60;99.90;;;;;;5054559;28;20048;-60
2023/05/25 03:56:04;;;;;;;16.42;10.13;;;10.60;99.90;;;;;;5040596;28;20040;-60
2023/05/25 03:58:30;;;;;;;23.02;11.95;;;10.60;99.90;;;;;;5051337;28;20510;-60
2023/05/25 04:00:56;;;;;;;20.13;11.30;;;10.60;99.90;;;;;;5033103;28;20036;-59
2023/05/25 04:03:22;;;;;;;19.20;11.13;;;10.60;99.90;;;;;;5069861;28;20101;-59
2023/05/25 04:05:47;;;;;;;19.45;11.52;;;10.60;99.90;;;;;;5069090;28;20547;-59
2023/05/25 04:08:16;;;;;;;23.10;11.73;;;10.60;99.90;;;;;;5052266;28;20041;-60
2023/05/25 04:10:45;;;;;;;18.48;11.20;;;10.60;99.90;;;;;;5052084;28;20049;-60
2023/05/25 04:13:11;;;;;;;21.80;11.43;;;10.60;99.90;;;;;;5069622;28;20058;-59
2023/05/25 04:15:37;;;;;;;21.02;10.88;;;10.60;99.90;;;;;;5047207;28;20098;-60
2023/05/25 04:18:03;;;;;;;22.70;12.02;;;10.60;99.90;;;;;;5046518;28;20611;-60
2023/05/25 04:20:29;;;;;;;26.45;13.00;;;10.60;99.90;;;;;;5068509;28;20070;-59
2023/05/25 04:22:56;;;;;;;29.02;12.88;;;10.60;99.90;;;;;;5049798;28;20076;-59
2023/05/25 04:25:22;;;;;;;29.88;12.38;;;10.60;99.90;;;;;;5067702;28;20043;-60
2023/05/25 04:27:47;;;;;;;20.92;11.98;;;10.60;99.90;;;;;;5050491;28;20049;-59
2023/05/25 04:30:14;;;;;;;22.90;11.57;;;10.70;99.90;;;;;;5068774;28;20044;-58
2023/05/25 04:32:40;;;;;;;17.33;10.55;;;10.70;99.90;;;;;;5049167;28;20495;-57
2023/05/25 04:35:06;;;;;;;23.02;12.23;;;10.70;99.90;;;;;;5067204;28;20040;-57
2023/05/25 04:37:35;;;;;;;20.80;10.65;;;10.70;99.90;;;;;;5031063;28;20040;-59
2023/05/25 04:40:06;;;;;;;18.35;10.32;;;10.70;99.90;;;;;;5061418;28;20045;-59
2023/05/25 04:42:32;;;;;;;19.40;10.95;;;10.80;99.90;;;;;;5061018;28;20044;-60
2023/05/25 04:44:58;;;;;;;21.55;11.15;;;10.80;99.90;;;;;;5063761;28;20037;-59
2023/05/25 04:47:24;;;;;;;23.30;11.38;;;10.80;99.90;;;;;;5067323;28;20049;-59
2023/05/25 04:49:50;;;;;;;21.00;11.38;;;10.80;99.90;;;;;;5033148;28;20673;-59
2023/05/25 04:52:16;;;;;;;21.92;10.20;;;10.80;99.90;;;;;;5064031;28;20041;-59
2023/05/25 04:54:42;;;;;;;13.90;9.88;;;10.90;99.90;;;;;;5050128;28;20043;-59
2023/05/25 04:57:08;;;;;;;26.08;10.82;;;10.90;99.90;;;;;;5068938;28;20046;-57
2023/05/25 04:59:33;;;;;;;17.23;9.75;;;10.90;99.90;;;;;;5068036;28;20033;-59
2023/05/25 05:01:59;;;;;;;20.48;9.80;;;11.00;99.90;;;;;;5071222;28;20490;-59
2023/05/25 05:04:25;;;;;;;19.55;10.05;;;11.00;99.90;;;;;;5019325;28;20047;-58
2023/05/25 05:06:51;;;;;;;23.45;10.45;;;11.00;99.90;;;;;;5067773;28;20170;-57
2023/05/25 05:09:17;;;;;;;19.63;10.65;;;11.10;99.90;;;;;;5066797;28;20043;-58
2023/05/25 05:11:42;;;;;;;22.48;10.85;;;11.10;99.90;;;;;;5050468;28;20032;-57
2023/05/25 05:14:08;;;;;;;25.75;11.00;;;11.20;99.90;;;;;;5077031;28;20039;-59
2023/05/25 05:16:34;;;;;;;16.23;9.50;;;11.20;99.90;;;;;;5067197;28;20584;-60
2023/05/25 05:19:01;;;;;;;24.60;11.02;;;11.20;99.90;;;;;;5069237;28;20062;-59
2023/05/25 05:21:27;;;;;;;20.75;11.13;;;11.30;99.90;;;;;;5068050;28;20033;-59
2023/05/25 05:23:52;;;;;;;24.92;11.40;;;11.30;99.90;;;;;;5034410;28;20059;-59
2023/05/25 05:26:20;;;;;;;20.27;9.90;;;11.40;99.90;;;;;;5050271;28;20051;-59
2023/05/25 05:28:45;;;;;;;21.33;10.57;;;11.50;99.90;;;;;;5033191;28;20048;-59
2023/05/25 05:31:11;;;;;;;24.60;11.27;;;11.60;99.90;;;;;;5050407;28;20419;-59
2023/05/25 05:33:38;;;;;;;21.10;9.57;;;11.60;99.90;;;;;;5067579;28;20573;-59
2023/05/25 05:36:04;;;;;;;22.80;10.25;;;11.70;99.90;;;;;;5048914;28;20040;-59
2023/05/25 05:38:30;;;;;;;19.40;11.20;;;11.80;99.90;;;;;;5067179;28;20397;-58
2023/05/25 05:40:55;;;;;;;24.73;10.85;;;11.80;99.90;;;;;;5063223;28;20039;-58
2023/05/25 05:43:24;;;;;;;28.35;11.48;;;11.90;99.90;;;;;;5047448;28;20041;-59
2023/05/25 05:45:50;;;;;;;20.58;10.65;;;12.00;99.90;;;;;;5025440;28;20522;-58
2023/05/25 05:48:16;;;;;;;19.67;10.95;;;12.10;99.90;;;;;;5043719;28;20036;-58
2023/05/25 05:50:41;;;;;;;21.75;10.73;;;12.10;99.90;;;;;;5046764;28;20041;-57
2023/05/25 05:53:08;;;;;;;23.42;11.50;;;12.20;99.90;;;;;;5038005;28;20061;-58
2023/05/25 05:55:35;;;;;;;19.02;10.63;;;12.30;99.90;;;;;;5063041;28;20554;-59
2023/05/25 05:58:01;;;;;;;19.17;9.98;;;12.30;99.90;;;;;;5060276;28;20072;-59
2023/05/25 06:00:26;;;;;;;21.98;10.35;;;12.30;99.90;;;;;;5049665;28;20075;-57
2023/05/25 06:02:52;;;;;;;22.95;11.50;;;12.40;99.90;;;;;;5049230;28;20117;-59
2023/05/25 06:05:18;;;;;;;24.73;10.25;;;12.50;99.90;;;;;;5042164;28;20128;-58
2023/05/25 06:07:44;;;;;;;18.55;10.90;;;12.50;99.90;;;;;;5040990;28;20136;-58
2023/05/25 06:10:10;;;;;;;20.70;10.68;;;12.50;99.90;;;;;;5064988;28;20064;-59
2023/05/25 06:12:36;;;;;;;20.83;11.23;;;12.60;99.90;;;;;;5050146;28;20037;-57
2023/05/25 06:15:02;;;;;;;20.30;10.60;;;12.60;99.90;;;;;;5064083;28;20028;-60
2023/05/25 06:17:28;;;;;;;20.13;10.65;;;12.80;99.90;;;;;;5026013;28;20117;-60
2023/05/25 06:19:54;;;;;;;20.02;10.60;;;12.80;99.90;;;;;;5031064;28;20052;-59
2023/05/25 06:22:21;;;;;;;19.80;9.10;;;12.90;99.90;;;;;;5065561;28;20162;-59
2023/05/25 06:24:47;;;;;;;22.33;8.63;;;13.00;99.90;;;;;;5027212;28;20048;-61
2023/05/25 06:27:12;;;;;;;23.15;9.35;;;13.00;99.90;;;;;;5065919;28;20048;-61
2023/05/25 06:29:38;;;;;;;19.08;8.52;;;13.00;99.90;;;;;;5045676;28;20045;-61
2023/05/25 06:32:09;;;;;;;17.50;5.68;;;13.10;99.90;;;;;;5043602;28;20133;-61
2023/05/25 06:34:35;;;;;;;19.45;5.78;;;13.20;99.90;;;;;;5052241;28;20033;-61
2023/05/25 06:37:01;;;;;;;15.85;4.05;;;13.20;99.90;;;;;;5041933;28;20051;-61
2023/05/25 06:39:26;;;;;;;19.48;4.75;;;13.20;99.90;;;;;;5047429;28;20562;-61
2023/05/25 06:41:52;;;;;;;11.93;4.35;;;13.30;99.90;;;;;;5061281;28;20032;-60
2023/05/25 06:44:18;;;;;;;20.98;5.43;;;13.40;99.90;;;;;;5062590;28;20045;-60
2023/05/25 06:46:44;;;;;;;13.93;5.05;;;13.40;99.90;;;;;;5061837;28;20036;-61
2023/05/25 07:00:24;;;;;;;19.58;4.50;;;13.60;99.90;;;;;;5060981;28;20037;-61
2023/05/25 07:02:50;;;;;;;21.35;4.32;;;13.70;99.90;;;;;;5040470;28;20161;-60
2023/05/25 07:05:15;;;;;;;18.45;4.57;;;13.70;99.90;;;;;;5043982;28;20041;-60
2023/05/25 07:07:41;;;;;;;20.38;5.63;;;13.70;99.90;;;;;;5060712;28;20044;-61
2023/05/25 07:10:08;;;;;;;14.13;5.68;;;13.60;99.90;;;;;;5033288;28;20640;-61
2023/05/25 07:12:33;;;;;;;21.27;4.80;;;13.60;99.90;;;;;;5034349;28;20144;-60
2023/05/25 07:14:59;;;;;;;22.00;4.93;;;13.60;99.90;;;;;;5065616;28;20538;-60
2023/05/25 07:17:25;;;;;;;19.40;5.07;;;13.60;99.90;;;;;;5045409;28;20119;-61
2023/05/25 07:19:51;;;;;;;18.77;5.43;;;13.60;99.90;;;;;;5024305;28;20052;-61
2023/05/25 07:22:18;;;;;;;15.73;4.82;;;13.70;99.90;;;;;;5069222;28;20501;-60
2023/05/25 07:24:47;;;;;;;21.88;5.03;;;13.70;99.90;;;;;;5047100;28;20124;-61
2023/05/25 07:27:13;;;;;;;18.73;4.78;;;13.80;99.90;;;;;;5053190;28;20055;-60
2023/05/25 07:29:39;;;;;;;17.38;4.40;;;13.90;99.90;;;;;;5048033;28;20377;-60
2023/05/25 07:32:06;;;;;;;23.90;5.10;;;14.00;99.90;;;;;;5063750;28;20056;-60
2023/05/25 07:34:33;;;;;;;20.65;4.82;;;13.90;99.90;;;;;;5064137;28;20098;-60
2023/05/25 07:36:59;;;;;;;23.40;4.93;;;13.90;99.90;;;;;;5045647;28;20070;-61
2023/05/25 07:39:24;;;;;;;24.58;6.20;;;13.90;99.90;;;;;;5070169;28;20040;-60
2023/05/25 07:41:50;;;;;;;20.10;4.43;;;14.00;99.90;;;;;;5065852;28;20039;-59
2023/05/25 07:44:16;;;;;;;16.10;5.43;;;14.10;99.90;;;;;;5053261;28;20545;-60
2023/05/25 07:46:42;;;;;;;21.73;5.20;;;14.10;99.90;;;;;;5043513;28;20040;-60
2023/05/25 07:49:12;;;;;;;22.95;5.65;;;14.20;99.90;;;;;;5041119;28;20087;-60
2023/05/25 07:51:38;;;;;;;21.08;4.78;;;14.40;99.90;;;;;;5046143;28;20090;-61
2023/05/25 07:54:04;;;;;;;26.02;5.82;;;14.60;99.90;;;;;;5072513;28;20035;-60
2023/05/25 07:56:33;;;;;;;19.65;5.10;;;14.70;99.90;;;;;;5069005;28;20511;-61
2023/05/25 07:58:59;;;;;;;21.67;5.30;;;14.90;99.90;;;;;;5051025;28;20082;-60
2023/05/25 08:01:25;;;;;;;16.63;4.57;;;15.00;99.90;;;;;;5036038;28;20075;-60
2023/05/25 08:03:51;;;;;;;25.88;5.63;;;15.20;99.90;;;;;;5063856;28;20132;-61
2023/05/25 08:06:17;;;;;;;22.55;4.90;;;15.30;99.90;;;;;;5065666;28;20752;-61
2023/05/25 08:08:45;;;;;;;26.67;6.07;;;15.40;99.90;;;;;;5052079;28;20590;-60
2023/05/25 08:11:15;;;;;;;26.35;5.95;;;15.40;99.90;;;;;;5065501;28;20131;-60
2023/05/25 08:13:41;;;;;;;20.90;5.25;;;15.40;99.90;;;;;;5031840;28;20091;-60
2023/05/25 08:16:08;;;;;;;21.42;5.00;;;15.40;99.90;;;;;;5062813;28;20042;-60
2023/05/25 08:18:34;;;;;;;23.95;5.30;;;15.20;99.90;;;;;;5064744;28;20043;-61
2023/05/25 08:21:00;;;;;;;22.73;5.25;;;15.20;99.90;;;;;;5062881;28;20044;-61
2023/05/25 08:23:26;;;;;;;23.45;5.15;;;15.10;99.90;;;;;;5049191;28;20400;-61
2023/05/25 08:25:52;;;;;;;23.60;4.93;;;14.90;99.90;;;;;;5051638;28;20051;-60
2023/05/25 08:28:19;;;;;;;27.92;5.10;;;14.70;99.90;;;;;;5068455;28;20112;-60
2023/05/25 08:30:45;;;;;;;25.90;5.85;;;14.90;99.90;;;;;;5065103;28;20052;-61
2023/05/25 08:33:11;;;;;;;21.05;5.47;;;15.00;99.90;;;;;;5066520;28;20033;-61
2023/05/25 08:35:39;;;;;;;25.13;4.95;;;15.30;99.90;;;;;;5029352;28;20041;-61
2023/05/25 08:38:05;;;;;;;20.48;4.72;;;15.50;99.90;;;;;;5045012;28;20047;-62
2023/05/25 08:40:31;;;;;;;20.75;5.20;;;15.70;99.90;;;;;;5047861;28;20044;-62
2023/05/25 08:42:57;;;;;;;20.30;5.05;;;15.80;99.90;;;;;;5067070;28;20037;-61
2023/05/25 08:45:23;;;;;;;18.55;4.07;;;15.80;99.90;;;;;;5040764;28;20068;-60
2023/05/25 08:47:52;;;;;;;19.55;5.00;;;15.90;99.90;;;;;;5065325;28;20035;-60
2023/05/25 08:50:19;;;;;;;24.85;5.05;;;16.10;99.90;;;;;;5066535;28;20044;-59
2023/05/25 08:52:48;;;;;;;21.17;4.78;;;16.10;99.90;;;;;;5049937;28;20056;-59
2023/05/25 08:55:17;;;;;;;18.63;5.13;;;16.10;99.90;;;;;;5069376;28;20040;-61
2023/05/25 08:57:54;;;;;;;22.77;5.95;;;16.30;99.90;;;;;;5062733;28;20048;-60
2023/05/25 09:00:27;;;;;;;20.63;5.68;;;16.30;99.90;;;;;;5046401;28;20048;-61
2023/05/25 09:03:16;;;;;;;19.77;4.40;;;16.50;99.90;;;;;;5064376;28;20059;-60
2023/05/25 09:05:42;;;;;;;23.35;5.43;;;16.60;99.90;;;;;;5059538;28;20048;-59
2023/05/25 09:08:09;;;;;;;22.45;4.85;;;16.50;99.90;;;;;;5046692;28;20056;-59
2023/05/25 09:10:36;;;;;;;22.85;5.15;;;16.60;99.90;;;;;;5050285;28;20047;-59
2023/05/25 09:13:02;;;;;;;23.75;5.68;;;16.60;99.50;;;;;;5055468;28;20968;-60
2023/05/25 09:15:28;;;;;;;18.80;4.43;;;16.40;99.50;;;;;;5046647;28;20037;-61
2023/05/25 09:17:54;;;;;;;18.60;3.85;;;16.40;99.20;;;;;;5058510;28;20044;-59
2023/05/25 09:20:20;;;;;;;16.60;4.78;;;16.40;99.30;;;;;;5062791;28;20372;-61
2023/05/25 09:22:49;;;;;;;18.35;5.40;;;16.50;99.50;;;;;;5067469;28;20025;-60
2023/05/25 09:25:19;;;;;;;17.65;4.72;;;16.40;99.00;;;;;;5066967;28;20140;-59
2023/05/25 09:27:45;;;;;;;18.02;4.25;;;16.60;99.30;;;;;;5065239;28;20049;-59
2023/05/25 09:30:11;;;;;;;18.75;4.82;;;16.90;99.10;;;;;;5064572;28;20033;-60
2023/05/25 09:32:38;;;;;;;21.40;5.88;;;17.00;98.70;;;;;;5050495;28;20039;-59
2023/05/25 09:35:22;;;;;;;19.15;5.15;;;16.90;97.30;;;;;;5066520;28;20068;-59
2023/05/25 09:37:48;;;;;;;23.70;5.40;;;16.90;97.40;;;;;;5045219;28;20036;-58
2023/05/25 09:40:14;;;;;;;21.95;5.35;;;16.80;97.70;;;;;;5046294;28;20071;-60
2023/05/25 09:42:40;;;;;;;21.88;5.47;;;16.80;98.00;;;;;;5067971;28;20098;-59
2023/05/25 09:45:06;;;;;;;22.45;4.88;;;16.80;97.80;;;;;;5045447;28;20066;-60
2023/05/25 09:47:42;;;;;;;18.17;4.93;;;16.90;97.90;;;;;;5064811;28;20036;-58
2023/05/25 09:50:11;;;;;;;24.98;5.38;;;17.00;98.10;;;;;;5047441;28;20047;-61
2023/05/25 09:52:37;;;;;;;25.35;6.45;;;17.00;97.40;;;;;;5047995;28;20062;-61
2023/05/25 09:55:09;;;;;;;16.58;4.18;;;16.90;97.60;;;;;;5071086;28;20037;-60
2023/05/25 09:57:35;;;;;;;16.23;4.68;;;17.10;97.60;;;;;;5069580;28;20575;-59
2023/05/25 10:00:04;;;;;;;15.30;5.03;;;17.30;97.90;;;;;;5049476;28;20048;-61
2023/05/25 10:02:30;;;;;;;20.23;5.03;;;16.90;96.90;;;;;;5049601;28;20044;-58
2023/05/25 10:04:56;;;;;;;16.40;5.25;;;16.80;96.40;;;;;;5065611;28;20036;-60
2023/05/25 10:07:23;;;;;;;20.80;5.57;;;16.70;97.20;;;;;;5030175;28;21024;-60
2023/05/25 10:09:52;;;;;;;18.98;5.03;;;16.80;97.50;;;;;;5060452;28;20074;-60
2023/05/25 10:12:20;;;;;;;22.77;6.05;;;17.10;98.00;;;;;;5048838;28;20063;-60
2023/05/25 10:14:49;;;;;;;27.23;5.55;;;17.30;97.80;;;;;;5049224;28;20044;-59
2023/05/25 10:17:23;;;;;;;17.95;4.90;;;17.40;97.00;;;;;;5061797;28;20048;-57
2023/05/25 10:19:59;;;;;;;24.17;5.20;;;17.20;97.10;;;;;;5062740;28;20475;-60
2023/05/25 10:22:39;;;;;;;24.58;5.13;;;17.10;97.40;;;;;;5042419;28;20049;-59
2023/05/25 10:25:23;;;;;;;23.88;5.50;;;17.20;98.00;;;;;;5062710;28;20101;-59
2023/05/25 10:28:00;;;;;;;20.83;5.90;;;16.90;97.40;;;;;;5060646;28;20029;-60
2023/05/25 10:30:26;;;;;;;25.25;6.20;;;16.70;97.40;;;;;;5064430;28;20123;-58
2023/05/25 10:32:55;;;;;;;25.85;6.85;;;16.50;98.00;;;;;;5050469;28;20122;-60
2023/05/25 10:35:24;;;;;;;21.45;5.25;;;16.60;98.30;;;;;;5028709;28;21800;-60
2023/05/25 10:37:51;;;;;;;19.73;4.95;;;16.70;98.30;;;;;;5044012;28;20120;-60
2023/05/25 10:40:22;;;;;;;22.42;5.55;;;16.80;98.20;;;;;;5066163;28;20040;-60
2023/05/25 10:42:51;;;;;;;19.40;5.18;;;17.10;98.20;;;;;;5061624;28;20048;-60
2023/05/25 10:45:17;;;;;;;18.88;5.20;;;17.40;98.00;;;;;;5059945;28;20119;-59
2023/05/25 10:47:45;;;;;;;27.38;6.28;;;17.30;97.70;;;;;;5041629;28;20477;-57
2023/05/25 10:50:34;;;;;;;22.23;5.47;;;17.10;97.60;;;;;;5060856;28;20090;-59
2023/05/25 10:53:06;;;;;;;19.20;5.30;;;17.10;97.60;;;;;;5050179;28;20371;-60
2023/05/25 10:55:44;;;;;;;23.73;6.40;;;17.10;98.00;;;;;;5064072;28;20028;-60
2023/05/25 10:58:13;;;;;;;25.20;5.65;;;16.90;97.00;;;;;;5042958;28;20131;-60
2023/05/25 11:00:40;;;;;;;22.90;5.60;;;16.60;97.70;;;;;;5056957;28;20503;-59
2023/05/25 11:03:06;;;;;;;15.85;5.43;;;16.50;97.60;;;;;;5061664;28;20052;-57
2023/05/25 11:05:34;;;;;;;23.52;5.18;;;16.40;97.80;;;;;;5042694;28;20040;-60
2023/05/25 11:08:05;;;;;;;25.65;5.95;;;16.60;98.10;;;;;;5057962;28;20040;-60
2023/05/25 11:10:50;;;;;;;19.83;5.25;;;16.80;97.60;;;;;;5064965;28;20041;-60
2023/05/25 11:13:32;;;;;;;19.75;4.70;;;17.00;97.70;;;;;;5044119;28;20477;-59
2023/05/25 11:16:08;;;;;;;22.70;5.20;;;16.90;96.90;;;;;;5042949;28;20048;-60
2023/05/25 11:18:37;;;;;;;23.02;5.60;;;16.80;97.30;;;;;;5059464;28;20063;-59
2023/05/25 11:21:39;;;;;;;22.13;5.38;;;16.80;97.90;;;;;;5060050;28;20055;-58
2023/05/25 11:24:14;;;;;;;23.35;6.13;;;17.00;97.20;;;;;;5060366;28;20135;-60
2023/05/25 11:27:12;;;;;;;28.65;5.90;;;17.20;97.90;;;;;;5060791;28;20040;-60
2023/05/25 11:29:39;;;;;;;24.92;6.53;;;17.10;97.20;;;;;;5030181;28;20055;-60
2023/05/25 11:32:13;;;;;;;24.70;5.57;;;16.90;97.80;;;;;;5063197;28;20652;-60
2023/05/25 11:34:45;;;;;;;23.00;5.97;;;17.10;98.00;;;;;;5049154;28;20075;-59
2023/05/25 11:37:23;;;;;;;29.45;6.47;;;17.30;98.20;;;;;;5062974;28;20059;-60
2023/05/25 11:39:52;;;;;;;79.57;10.02;;;17.40;97.60;;;;;;5069371;28;20489;-61
2023/05/25 11:42:20;;;;;;;24.55;5.15;;;17.30;97.70;;;;;;5046658;28;20090;-58
2023/05/25 11:44:46;;;;;;;25.63;6.00;;;17.20;97.50;;;;;;5062060;28;20033;-60
2023/05/25 11:47:23;;;;;;;23.40;5.35;;;17.10;97.30;;;;;;5064916;28;20491;-60
2023/05/25 11:49:49;;;;;;;23.27;6.22;;;17.00;97.60;;;;;;5050839;28;20044;-59
2023/05/25 11:52:22;;;;;;;31.05;6.28;;;16.80;97.00;;;;;;5066635;28;20068;-60
2023/05/25 11:54:47;;;;;;;28.52;6.53;;;16.90;97.70;;;;;;5064870;28;20036;-60
2023/05/25 11:57:15;;;;;;;21.88;5.85;;;17.00;97.70;;;;;;5052621;28;20048;-61
2023/05/25 11:59:52;;;;;;;21.00;5.63;;;17.00;97.80;;;;;;5031637;28;20044;-59
2023/05/25 12:02:20;;;;;;;21.85;5.75;;;17.00;97.60;;;;;;5070966;28;20041;-60
2023/05/25 12:05:12;;;;;;;24.42;5.85;;;16.70;96.80;;;;;;5064889;28;20652;-60
2023/05/25 12:07:45;;;;;;;21.63;5.70;;;16.70;97.20;;;;;;5066946;28;20045;-57
2023/05/25 12:10:13;;;;;;;23.90;4.93;;;16.80;97.60;;;;;;5067161;28;20037;-60
2023/05/25 12:13:01;;;;;;;22.98;5.45;;;16.70;97.20;;;;;;5031582;28;20040;-60
2023/05/25 12:15:28;;;;;;;22.70;5.57;;;16.70;96.70;;;;;;5067021;28;20044;-60
2023/05/25 12:17:55;;;;;;;24.23;6.05;;;16.90;97.60;;;;;;5063201;28;20078;-57
2023/05/25 12:20:21;;;;;;;22.92;6.68;;;16.90;97.20;;;;;;5064831;28;20072;-60
2023/05/25 12:22:50;;;;;;;29.23;6.03;;;17.10;97.20;;;;;;5066468;28;20032;-59
2023/05/25 12:25:23;;;;;;;17.65;5.10;;;17.30;97.20;;;;;;5073423;28;20499;-58
2023/05/25 12:28:08;;;;;;;19.33;5.63;;;17.20;96.60;;;;;;5065004;28;20040;-60
2023/05/25 12:30:33;;;;;;;24.35;5.43;;;17.30;96.40;;;;;;5069237;28;20039;-60
2023/05/25 12:33:01;;;;;;;21.58;6.13;;;17.70;96.80;;;;;;5049922;28;20033;-60
2023/05/25 12:35:27;;;;;;;24.25;5.38;;;17.90;96.60;;;;;;5060300;28;20630;-59
2023/05/25 12:38:12;;;;;;;23.92;6.07;;;17.90;95.70;;;;;;5076668;22;20072;-58
2023/05/25 12:40:38;;;;;;;23.42;6.00;;;17.90;95.50;;;;;;5048620;28;20048;-58
2023/05/25 12:43:04;;;;;;;22.27;5.82;;;17.80;95.70;;;;;;5061906;28;20059;-57
2023/05/25 12:45:30;;;;;;;22.95;5.63;;;17.30;95.20;;;;;;5048417;28;20040;-58
2023/05/25 12:47:56;;;;;;;21.95;6.18;;;17.30;95.50;;;;;;5062768;28;20468;-58
2023/05/25 12:50:25;;;;;;;22.27;5.78;;;17.30;96.10;;;;;;5064073;23;20525;-60